Terminal Aerodrome Forecast
Issued by NWS Austin/San Antonio, TX

Home | Current Version | Previous Version | Text Only | Print | Product List | Glossary On
Versions: 1 2 3 4 5 6 7 8 9 10 11
516
FTUS44 KEWX 112339
TAFSAT
TAF
KSAT 112339Z 1200/1306 18008KT P6SM FEW250
     FM121000 VRB03KT 6SM BR FEW250
     FM121500 05009KT P6SM FEW250=

USA.gov is the U.S. government's official web portal to all federal, state and local government web resources and services.